• METAR

    LHBP Budapest Liszt Ferenc repülőtér METAR

    LHBP 230400Z 07006KT CAVOK 10/07 Q1016 NOSIG

    QNH légnyomás:1016hpa
    Hőmérséklet/temperature: 10°C
    Harmatpont/Dew Point Temp: 7°C

    LHDC Debreceni repülőtér METAR

    LHDC 230048Z AUTO /////KT //// ////// 10/06 Q1017

    QNH légnyomás:1017hpa
    Hőmérskélet/temperature: 10°C
    Harmatpont/Dew Point Temp: 6°C

    LHPR Győr-pér repülőtér METAR

    LHPR 230345Z AUTO 28004KT 6000 NSC 04/04 Q1016 RMK WHT

    QNH légnyomás:1016hpa
    Hőmérskélet/temperature: 4°C
    Harmatpont/Dew Point Temp: 4°C

    lhsm Sármellék repülőtér METAR

    LHSM 221545Z 35014KT CAVOK 16/09 Q1012 NOSIG

    QNH légnyomás:1012hpa
    Hőmérskélet/temperature: 16°C
    Harmatpont/Dew Point Temp: 9°C

    lhpp Pécs-pogány repülőtér METAR

    LHPP 221645Z 30005KT CAVOK 21/06 Q1013

    QNH légnyomás:1013hpa
    Hőmérskélet/temperature: 21°C
    Harmatpont/Dew Point Temp: 6°C

    LHKE Kecskemét repülőtér METAR

    LHKE 230345Z 04004KT 7000 NSC 10/08 Q1015 TEMPO 5000 BR RMK WHT

    QNH légnyomás:1015hpa
    Hőmérskélet/temperature: 10°C
    Harmatpont/Dew Point Temp: 8°C

    LHSN Szolnok repülőtér METAR

    LHSN 230345Z 08006KT 6000 NSC 09/08 Q1016 NOSIG RMK WHT

    QNH légnyomás:1016hpa
    Hőmérskélet/temperature: 9°C
    Harmatpont/Dew Point Temp: 8°C

    LHUD szeged repülőtér METAR

    LHUD 230345Z 11009KT CAVOK 13/07 Q1015

    QNH légnyomás:1015hpa
    Hőmérskélet/temperature: 13°C
    Harmatpont/Dew Point Temp: 7°C

  • TÉRKÉPEK

    Felhőkép

    Széltérkép

    Hőtérkép

    radarkép

    map

    map

  • Műholdképek

    Magyarország műholdkép

    Europa műholdkép

    Europa szinoptikus térkép

  • ELTE ELŐREJELZÉS (2 NAP LHBP)

    2 napos légnyomás előrejelzés Budapest LHBP

    2 napos szél előrejelzés Budapest LHBP

    2 napos termik trigger előrejelzés Budapest LHBP

    2 napos felhőzet előrejelzés Budapest LHBP

    2 napos thermal index profile előrejelzés Budapest LHBP

    2 napos átlag emelés előrejelzés Budapest LHBP

    2 napos felhő alap előrejelzés Budapest LHBP

    2 napos hőmérséklet advekció előrejelzés Budapest LHBP

  • VILLÁMRADAR

  • ELŐREJELZÉS

  • WINDFINDER ELŐREJELZÉS

  • RIASZTÁS - VÉSZJELZÉS

Repülésmeteorológia, aktuális időjárási helyzet és előrejelzés

Repülésmeteorológia, várható időjárás jelentések, előrejelzések és riasztások. METAR, TAF adatok, aktuális időjárás helyzetek és térképek.

A meteorológia kialakulásában és fejlődésében kiemelt szerep jutott a repülésnek, illetve a repülés technikai fejlődésének. A repülésmeteorológia elsődlegesen a repülés biztonságát, másodlagosan a repülés gazdaságosságát hivatott szolgálni. Eleinte a katonai repülőgépeknek, később a polgári repülésnek, ma már a sportrepülő pilótáknak, és a mezőgazdasági pilótáknak is egyaránt szükségük van a naprakész meteorológiai információkra.

Repülésmeteorológia oldalunkon összegyűjtöttük a legnépszerűbb és legjobb időjárás oldalak hivatkozásait, hogy repülés előtt vagy akár közben minden fontos forrást egyszerűen és gyorsan megtalálj. Magyarország várható időjárása, légállapoti diagramok, termik előrejelzés, METAR adatok, vészjelzések és figyelmeztetések. A képernyő szélén közvetlenül pedig pozíciód aktuális időjárási paramétereit is megtalálod.

JOGI NYILATKOZAT

Az oldal használatával a látogató elfogadja az alábbi felhasználási feltételeket:

Az oldalon feltüntetett repülésmeteorológia információkat mindenki csak saját felelősségre használhatja. A feltüntetett külső forrásokból származó információk pontosságáért és tartalmáért, valamint az esetlegesen ebből adódó bármilyen káresemény kapcsán a FLYTIME.HU nem vállal felelősséget!